Date,TemperatureHighF,TemperatureAvgF,TemperatureLowF,DewpointHighF,DewpointAvgF,DewpointLowF,HumidityHigh,HumidityAvg,HumidityLow,PressureMaxIn,PressureMinIn,WindSpeedMaxMPH,WindSpeedAvgMPH,GustSpeedMaxMPH,PrecipitationSumIn
2013-1-1,36,30,21,35,26,14,97,84,72,30.27,30.03,7,3,11,0.00
2013-1-2,38,25,17,20,14,10,77,62,35,30.27,30.15,7,1,8,0.00
2013-1-3,48,31,21,26,19,15,80,60,34,30.39,30.21,8,2,11,0.00
2013-1-4,50,33,22,23,18,14,75,54,29,30.42,30.30,9,2,11,0.00
2013-1-5,42,35,25,28,24,15,74,62,49,30.30,30.15,8,2,12,0.00
2013-1-6,48,33,24,28,20,13,75,58,32,30.36,30.15,9,3,14,0.00
2013-1-7,56,35,21,26,18,12,69,51,29,30.36,30.09,6,1,11,0.00
2013-1-8,58,43,28,43,27,17,84,54,36,30.21,30.03,5,1,9,0.00
2013-1-9,57,49,44,46,39,30,97,70,45,30.39,30.21,5,2,12,0.00
2013-1-10,50,45,43,41,35,29,88,70,45,30.30,30.12,9,4,15,0.00
2013-2-13,51,39,33,34,29,24,93,69,40,30.00,29.91,9,3,14,0.00
2013-2-14,58,45,34,30,24,19,70,43,28,30.15,29.94,9,4,15,0.00
2013-2-15,44,37,32,24,21,19,64,52,44,30.24,30.15,9,5,16,0.00
2013-2-27,36,33,32,29,26,22,87,73,62,30.00,29.83,13,4,20,0.00
2013-2-28,34,32,30,25,23,20,75,67,60,30.15,29.97,8,1,13,0.00
2013-3-1,32,30,28,24,22,19,78,71,60,30.24,30.09,0,0,0,0.00
2013-3-2,38,29,23,23,17,13,78,58,40,30.30,30.15,8,1,12,0.00
2013-3-3,60,39,23,26,20,14,72,48,25,30.21,29.85,7,3,13,0.00
2013-3-4,70,50,38,39,30,19,73,48,29,29.85,29.65,12,4,23,0.00
2013-3-5,44,37,30,33,20,14,87,52,35,30.27,29.83,15,9,30,0.00
2013-3-6,51,36,26,20,16,13,54,44,28,30.36,30.24,10,4,20,0.00
2013-3-7,67,46,32,28,22,17,57,40,20,30.30,30.15,7,3,11,0.00
2013-3-8,62,48,37,32,27,23,63,46,31,30.30,30.09,8,4,14,0.00
2013-3-9,74,56,46,55,39,32,91,55,29,30.09,29.77,9,4,16,0.00
2013-3-10,60,45,33,56,42,30,99,88,57,29.91,29.68,11,6,18,0.00
2013-3-11,46,34,28,30,23,17,89,64,34,30.03,29.88,12,6,20,0.00
2013-3-12,56,40,28,26,21,14,75,48,26,30.30,30.03,11,4,20,0.00
2013-3-13,53,38,28,21,18,15,57,44,27,30.45,30.27,8,4,13,0.00
2013-3-14,73,50,31,32,25,18,61,41,22,30.36,30.09,15,4,24,0.00
2013-3-15,71,49,41,42,35,30,78,60,31,30.12,29.97,10,2,13,0.00
2013-4-1,59,47,39,36,30,21,77,53,36,30.24,30.00,8,4,13,0.00
2013-4-2,43,40,36,29,25,21,70,55,47,30.30,30.24,6,2,10,0.00
2013-4-3,61,44,32,29,22,17,70,45,25,30.30,30.18,7,2,14,0.00
2013-4-4,58,49,39,29,24,21,57,39,26,30.18,30.06,7,2,11,0.00
2013-4-5,76,52,32,36,28,21,73,44,20,30.21,30.03,7,1,10,0.00
2013-4-6,75,62,51,40,34,27,49,35,23,30.03,29.80,13,4,20,0.00
2013-4-7,80,65,49,54,45,38,79,50,27,30.00,29.80,7,3,11,0.00
2013-4-8,76,67,60,55,52,48,73,60,45,29.91,29.80,8,3,13,0.00
2013-4-9,83,70,61,60,54,48,75,59,35,29.91,29.80,7,3,14,0.00
2013-4-10,69,55,39,64,50,38,99,83,56,29.94,29.80,10,4,20,0.00
2013-4-11,53,42,35,39,30,24,99,65,36,29.91,29.80,11,5,17,0.00
2013-4-12,38,36,34,30,28,26,74,71,65,29.91,29.83,4,1,10,0.00
2013-4-18,64,46,39,64,40,24,100,79,56,30.00,29.71,12,7,20,0.00
2013-4-19,42,37,35,24,21,18,55,52,41,30.12,29.97,13,7,22,0.00
2013-4-25,76,55,33,34,29,26,78,44,18,30.39,30.27,8,2,20,0.00
2013-5-25,89,78,67,59,56,50,63,47,34,30.36,30.21,4,2,20,0.00
2013-5-26,87,75,62,65,59,54,83,59,32,30.27,30.15,5,2,9,0.00
2013-5-27,87,76,66,67,61,58,83,62,42,30.15,29.91,7,2,12,0.00
2013-5-28,86,76,70,66,61,57,81,61,41,30.06,29.91,5,2,10,0.00
2013-5-29,87,76,68,66,60,56,81,60,38,30.09,29.91,5,2,11,0.00
2013-5-30,85,72,63,68,62,53,100,73,38,30.03,29.91,8,2,14,0.00
2013-5-31,85,74,66,72,68,59,100,82,55,30.00,29.85,11,2,31,0.00
2013-6-1,77,69,63,68,61,50,100,80,43,30.15,29.85,9,3,15,0.00
2013-6-2,65,62,56,57,53,51,89,75,64,30.24,30.12,6,2,11,0.00
2013-6-3,83,64,50,58,52,47,100,68,33,30.24,30.06,4,1,7,0.00
2013-6-4,78,68,60,62,57,53,83,70,49,30.18,30.09,4,1,7,0.00
2013-6-5,78,67,61,67,61,57,93,82,61,30.18,30.00,8,1,18,0.00
2013-6-6,74,66,59,64,59,54,100,81,53,30.12,30.03,7,1,12,0.00
2013-6-7,78,65,55,57,51,45,96,65,32,30.15,30.06,7,2,13,0.00
2013-6-8,83,67,52,59,52,47,90,62,31,30.12,30.00,3,1,6,0.00
2013-6-9,83,70,62,65,56,50,93,66,34,30.09,29.97,7,1,14,0.00
2013-6-10,94,76,61,67,60,55,89,61,37,30.09,29.97,6,2,13,0.00
2013-6-11,95,81,67,68,61,50,91,57,23,30.15,30.06,6,2,13,0.00
2013-6-12,79,76,73,64,63,62,71,64,58,30.12,30.09,2,0,4,0.00
2013-6-23,91,84,80,64,62,61,59,49,37,30.18,30.09,2,1,4,0.00
2013-6-24,95,83,72,70,64,59,81,54,32,30.24,30.09,4,1,9,0.00
2013-6-25,93,82,72,70,63,58,80,55,32,30.12,29.97,4,2,11,0.00
2013-6-26,96,85,74,71,66,62,78,55,37,30.06,29.97,6,2,11,0.00
2013-6-27,99,86,75,75,71,66,88,62,36,30.15,30.00,6,1,10,0.00
2013-6-28,90,80,71,74,62,50,97,60,29,30.09,29.97,18,3,37,0.00
2013-6-29,87,76,67,57,50,41,68,43,21,30.03,29.91,11,4,20,0.00
2013-6-30,81,70,64,62,55,50,81,60,37,30.12,29.97,7,4,13,0.00
2013-7-1,82,71,63,59,52,46,82,54,30,30.18,30.09,8,3,15,0.00
2013-7-2,84,70,58,53,48,42,78,51,23,30.24,30.15,8,2,14,0.00
2013-7-3,88,71,57,58,52,47,83,57,26,30.27,30.15,6,1,14,0.00
2013-7-4,88,72,59,63,55,47,92,62,26,30.24,30.12,4,1,8,0.00
2013-7-5,92,75,60,61,55,48,84,55,23,30.21,30.09,3,1,6,0.00
2013-7-6,94,77,65,64,58,50,82,55,25,30.18,30.06,3,1,6,0.00
2013-7-7,96,81,68,67,59,47,80,51,21,30.21,30.09,3,1,5,0.00
2013-7-8,98,81,70,69,62,58,81,56,28,30.24,30.15,3,0,5,0.00
2013-7-9,96,83,71,69,64,56,80,56,28,30.21,30.09,4,1,8,0.00
2013-7-10,83,78,77,70,66,65,68,66,62,30.15,30.09,2,0,2,0.00
2013-7-11,92,84,77,70,64,56,75,54,31,30.18,28.88,5,2,8,0.00
2013-7-12,81,73,68,52,51,50,55,47,36,28.88,28.82,1,-270,2,0.00
2013-7-13,88,74,62,58,54,48,73,51,31,30.06,28.82,10,-10,18,0.04
2013-7-14,94,77,64,63,54,47,80,50,21,30.15,30.03,4,1,8,0.00
2013-7-15,93,79,69,69,62,53,84,59,33,30.24,30.15,4,1,7,0.00
2013-7-16,93,78,69,75,68,61,98,75,35,30.33,30.21,4,0,6,0.00
2013-7-17,96,82,70,72,65,58,92,62,29,30.39,30.24,3,1,5,0.00
2013-7-18,99,84,71,67,62,55,79,52,26,30.30,30.09,4,1,6,0.00
2013-7-19,97,82,71,68,62,56,80,54,27,30.12,29.97,5,1,9,0.00
2013-7-20,94,79,70,69,64,57,87,64,36,30.06,29.91,6,1,11,0.00
2013-7-21,85,77,71,72,69,66,95,77,56,30.03,29.91,4,1,8,0.00
2013-7-22,87,78,67,73,65,58,90,66,38,30.03,29.91,6,1,11,0.00
2013-7-23,96,83,74,71,65,57,87,57,36,29.97,29.85,7,2,13,0.00
2013-7-24,89,79,72,67,62,53,82,58,32,30.09,29.94,7,2,13,0.66
2013-7-25,90,76,63,61,57,52,84,55,29,30.21,30.09,4,1,6,0.00
2013-7-26,74,70,67,70,64,58,97,82,59,30.12,30.06,3,0,6,1.00
2013-7-27,78,70,65,67,59,51,100,71,40,30.12,30.03,6,2,10,0.00
2013-7-28,75,69,64,64,60,56,92,75,56,30.12,30.06,3,0,5,0.00
2013-7-29,86,75,66,70,66,61,93,75,54,30.21,30.06,3,1,7,0.00
2013-7-30,84,76,70,76,72,69,100,91,71,30.12,30.03,5,0,8,0.00
2013-7-31,88,79,72,76,70,61,100,76,43,30.15,30.06,7,2,12,0.00
2013-8-1,90,77,65,69,62,56,97,64,33,30.21,30.06,3,-3,6,0.00
2013-8-2,91,78,70,72,67,63,86,69,49,30.09,29.94,3,-133,6,0.00
2013-8-3,90,78,69,74,70,66,100,78,51,30.18,29.94,8,1,24,0.00
2013-8-4,77,74,71,74,71,68,99,91,80,30.24,30.09,4,0,9,0.98
2013-8-5,89,78,72,76,72,68,97,83,63,30.12,29.94,6,1,10,0.13
2013-8-6,86,77,71,76,72,67,100,85,68,30.03,29.88,6,1,13,0.49
2013-8-7,87,78,72,76,71,68,97,82,57,30.06,29.88,9,1,17,0.00
2013-8-8,86,77,71,75,70,66,99,80,51,30.06,29.91,4,1,8,0.00
2013-8-9,83,77,73,73,68,65,93,76,55,30.12,29.97,5,1,9,0.00
2013-8-10,87,76,69,67,64,58,90,68,38,30.21,30.09,4,1,9,0.00
2013-8-11,88,77,69,70,67,63,90,72,53,30.21,30.09,3,1,6,0.00
2013-8-12,84,76,71,74,69,64,94,79,54,30.12,30.03,9,1,12,0.00
2013-8-13,85,75,68,72,63,55,97,69,40,30.15,30.06,6,1,14,0.00
2013-8-14,69,67,65,59,58,57,79,74,70,30.18,30.15,2,0,6,0.00
2013-12-11,30,22,15,7,3,0,50,44,36,30.56,30.45,0,-932,0,0.00
2013-12-12,49,26,10,16,6,-4,59,45,27,30.53,30.21,0,-999,0,0.00
2013-12-13,36,32,24,31,23,9,88,70,51,30.21,29.80,0,-999,0,0.00
2013-12-14,35,32,28,34,27,20,97,83,74,30.15,29.77,0,-999,0,0.00
2013-12-15,51,33,20,27,21,14,78,63,38,30.18,30.03,6,-318,7,0.00
2013-12-16,60,45,34,41,29,24,83,55,34,30.09,29.97,8,2,15,0.00
2013-12-17,56,38,28,33,24,18,80,59,29,30.27,30.06,9,1,16,0.00